Mineral Wells, Mississippi
Current Conditions -  °F | °C
As of 1:55 AM on Wednesday 26 Nov 2014 (Local Time) from KOLV Reporting Station
Clear Clear  
Wind Chill: 28°   Ceiling: Unl
Heat Index: NA   Visibility: 8mi
Dew Point: 30°   Wind: 0mph
Humidity: NA   Direction: NA
Pressure: 30.16"   Gusts: NA
Location:  34.942°N, 89.5387°W
Report Text: KOLV 260755Z AUTO 00000KT 8SM CLR M02/M01 A3016 RMK A01 P000
Loading
Personal Weather Stations






























Interactive Weather Map New forecast layout! Learn more

10-Day Weather Forecast

Advertisements
Track Severe Weather on mobile